createdAt,value
2023-01-30T00:00:06.087Z,254.68
2023-01-30T00:03:15.831Z,252.37
2023-01-30T00:06:25.641Z,256.36
2023-01-30T00:09:31.416Z,249.95
2023-01-30T00:12:37.975Z,235.35
2023-01-30T00:15:45.199Z,241.58
2023-01-30T00:18:54.878Z,243.00
2023-01-30T00:22:00.764Z,246.04
2023-01-30T00:25:08.965Z,255.93
2023-01-30T00:28:14.965Z,247.27
2023-01-30T00:31:21.601Z,228.63
2023-01-30T00:34:31.894Z,216.06
2023-01-30T00:37:38.696Z,213.22
2023-01-30T00:40:45.021Z,209.64
2023-01-30T00:44:04.041Z,201.06
2023-01-30T00:47:09.919Z,204.53
2023-01-30T00:50:19.702Z,201.30
2023-01-30T00:53:25.640Z,198.93
2023-01-30T00:56:32.257Z,202.19
2023-01-30T00:59:38.010Z,204.35
2023-01-30T01:02:46.463Z,198.04
2023-01-30T01:05:55.162Z,202.63
2023-01-30T01:09:01.840Z,197.15
2023-01-30T01:12:09.869Z,196.47
2023-01-30T01:15:18.275Z,209.39
2023-01-30T01:18:26.557Z,225.33
2023-01-30T01:21:42.943Z,215.05
2023-01-30T01:24:53.042Z,191.79
2023-01-30T01:27:59.659Z,197.22
2023-01-30T01:31:12.761Z,207.34
2023-01-30T01:34:20.911Z,184.12
2023-01-30T01:37:29.663Z,186.10
2023-01-30T01:40:48.640Z,187.67
2023-01-30T01:44:08.972Z,185.07
2023-01-30T01:47:21.920Z,185.87
2023-01-30T01:50:41.661Z,181.27
2023-01-30T01:54:00.922Z,181.66
2023-01-30T01:57:16.800Z,179.42
2023-01-30T02:00:25.501Z,174.33
2023-01-30T02:03:40.845Z,179.31
2023-01-30T02:06:47.572Z,166.15
2023-01-30T02:09:56.936Z,175.08
2023-01-30T02:13:04.066Z,173.47
2023-01-30T02:16:12.120Z,177.35
2023-01-30T02:19:37.275Z,170.30
2023-01-30T02:23:36.635Z,171.43
2023-01-30T02:27:44.313Z,176.39
2023-01-30T02:31:24.516Z,168.45
2023-01-30T02:34:53.744Z,171.13
2023-01-30T02:38:24.337Z,167.63
2023-01-30T02:41:46.768Z,164.22
2023-01-30T02:45:22.107Z,169.61
2023-01-30T02:48:42.597Z,169.88
2023-01-30T02:51:54.305Z,168.61
2023-01-30T02:55:00.121Z,169.95
2023-01-30T02:58:08.575Z,164.94
2023-01-30T03:01:57.530Z,167.08
2023-01-30T03:05:39.289Z,172.18
2023-01-30T03:09:10.676Z,182.09
2023-01-30T03:12:30.298Z,172.42
2023-01-30T03:15:44.673Z,172.33
2023-01-30T03:18:52.754Z,164.75
2023-01-30T03:22:02.657Z,160.29
2023-01-30T03:25:12.383Z,158.06
2023-01-30T03:28:23.809Z,158.53
2023-01-30T03:31:30.651Z,161.23
2023-01-30T03:34:37.031Z,155.80
2023-01-30T03:37:47.180Z,155.14
2023-01-30T03:40:53.380Z,160.95
2023-01-30T03:44:00.284Z,159.60
2023-01-30T03:47:06.810Z,156.82
2023-01-30T03:50:14.845Z,156.47
2023-01-30T03:53:26.388Z,157.68
2023-01-30T03:56:34.407Z,163.01
2023-01-30T03:59:40.592Z,157.70
2023-01-30T04:02:49.763Z,161.78
2023-01-30T04:05:56.844Z,148.72
2023-01-30T04:09:06.610Z,152.17
2023-01-30T04:12:20.913Z,154.17
2023-01-30T04:15:33.925Z,153.63
2023-01-30T04:18:59.990Z,159.61
2023-01-30T04:22:10.459Z,153.72
2023-01-30T04:25:20.159Z,156.48
2023-01-30T04:28:27.223Z,157.09
2023-01-30T04:31:33.248Z,156.62
2023-01-30T04:34:54.775Z,157.05
2023-01-30T04:38:01.109Z,162.27
2023-01-30T04:41:10.767Z,162.10
2023-01-30T04:44:20.037Z,169.84
2023-01-30T04:47:40.030Z,173.74
2023-01-30T04:50:50.149Z,170.86
2023-01-30T04:53:56.859Z,204.68
2023-01-30T04:57:11.971Z,210.29
2023-01-30T05:00:26.332Z,194.63
2023-01-30T05:03:37.062Z,240.99
2023-01-30T05:06:43.855Z,261.03
2023-01-30T05:09:50.384Z,286.82
2023-01-30T05:12:59.848Z,214.41
2023-01-30T05:16:06.995Z,192.32
2023-01-30T05:19:16.377Z,177.82
2023-01-30T05:22:22.215Z,183.85
2023-01-30T05:25:28.914Z,181.76
2023-01-30T05:28:37.506Z,183.83
2023-01-30T05:31:44.529Z,175.36
2023-01-30T05:34:52.668Z,172.77
2023-01-30T05:38:02.375Z,174.02
2023-01-30T05:41:19.879Z,199.25
2023-01-30T05:44:33.005Z,185.92
2023-01-30T05:47:38.776Z,182.55
2023-01-30T05:50:45.427Z,188.42
2023-01-30T05:53:51.867Z,180.98
2023-01-30T05:56:58.425Z,186.85
2023-01-30T06:00:08.208Z,247.74
2023-01-30T06:03:19.715Z,262.85
2023-01-30T06:06:26.772Z,233.73
2023-01-30T06:09:33.457Z,196.66
2023-01-30T06:12:39.454Z,178.49
2023-01-30T06:15:49.275Z,186.48
2023-01-30T06:19:04.984Z,190.85
2023-01-30T06:22:11.521Z,196.77
2023-01-30T06:25:17.755Z,203.01
2023-01-30T06:28:26.698Z,219.63
2023-01-30T06:31:37.407Z,191.83
2023-01-30T06:34:44.063Z,197.02
2023-01-30T06:37:49.844Z,196.08
2023-01-30T06:40:56.475Z,202.70
2023-01-30T06:44:02.247Z,216.68
2023-01-30T06:47:11.440Z,223.67
2023-01-30T06:50:19.597Z,232.27
2023-01-30T06:53:30.979Z,297.88
2023-01-30T06:56:36.789Z,286.24
2023-01-30T06:59:43.424Z,230.54
2023-01-30T07:02:56.235Z,199.10
2023-01-30T07:06:02.904Z,213.61
2023-01-30T07:09:08.640Z,203.73
2023-01-30T07:12:15.209Z,198.95
2023-01-30T07:15:21.386Z,202.02
2023-01-30T07:18:33.875Z,202.43
2023-01-30T07:21:39.616Z,192.28
2023-01-30T07:24:46.193Z,202.58
2023-01-30T07:27:55.128Z,194.27
2023-01-30T07:31:03.837Z,214.48
2023-01-30T07:34:12.257Z,206.57
2023-01-30T07:37:19.050Z,222.95
2023-01-30T07:40:26.408Z,219.94
2023-01-30T07:43:33.035Z,205.91
2023-01-30T07:46:38.901Z,219.40
2023-01-30T07:49:49.100Z,225.57
2023-01-30T07:52:55.322Z,237.20
2023-01-30T07:56:02.512Z,256.23
2023-01-30T07:59:08.555Z,212.42
2023-01-30T08:02:15.159Z,203.77
2023-01-30T08:05:23.720Z,193.12
2023-01-30T08:08:30.477Z,210.38
2023-01-30T08:11:36.353Z,190.47
2023-01-30T08:14:43.055Z,194.10
2023-01-30T08:17:57.115Z,194.84
2023-01-30T08:21:20.120Z,196.77
2023-01-30T08:24:26.761Z,181.07
2023-01-30T08:27:33.322Z,177.02
2023-01-30T08:30:39.056Z,180.78
2023-01-30T08:33:45.775Z,181.39
2023-01-30T08:36:54.746Z,179.09
2023-01-30T08:40:01.466Z,178.39
2023-01-30T08:43:08.662Z,174.37
2023-01-30T08:46:17.606Z,183.65
2023-01-30T08:49:23.390Z,229.30
2023-01-30T08:52:32.634Z,259.34
2023-01-30T08:55:38.631Z,203.22
2023-01-30T08:58:46.817Z,215.12
2023-01-30T09:01:52.542Z,212.83
2023-01-30T09:04:59.125Z,205.64
2023-01-30T09:08:11.423Z,193.41
2023-01-30T09:11:19.068Z,194.38
2023-01-30T09:14:25.723Z,199.56
2023-01-30T09:17:39.014Z,203.43
2023-01-30T09:20:46.980Z,183.34
2023-01-30T09:24:02.174Z,195.72
2023-01-30T09:27:11.036Z,214.32
2023-01-30T09:30:19.014Z,195.68
2023-01-30T09:33:25.099Z,242.57
2023-01-30T09:36:31.658Z,248.79
2023-01-30T09:39:46.511Z,222.12
2023-01-30T09:43:22.171Z,254.18
2023-01-30T09:46:49.756Z,230.82
2023-01-30T09:50:17.245Z,259.19
2023-01-30T09:53:37.523Z,277.71
2023-01-30T09:56:49.707Z,243.23
2023-01-30T10:00:08.649Z,210.77
2023-01-30T10:03:27.352Z,218.83
2023-01-30T10:06:56.989Z,216.72
2023-01-30T10:10:29.039Z,229.01
2023-01-30T10:14:18.823Z,238.30
2023-01-30T10:17:47.327Z,255.40
2023-01-30T10:21:17.904Z,338.93
2023-01-30T10:24:48.257Z,274.68
2023-01-30T10:28:04.616Z,252.81
2023-01-30T10:31:19.590Z,243.81
2023-01-30T10:34:35.964Z,236.55
2023-01-30T10:37:58.560Z,264.99
2023-01-30T10:41:20.788Z,303.67
2023-01-30T10:44:28.358Z,271.19
2023-01-30T10:48:00.669Z,276.48
2023-01-30T10:51:25.471Z,236.77
2023-01-30T10:54:42.103Z,200.76
2023-01-30T10:58:07.788Z,199.11
2023-01-30T11:01:27.845Z,211.27
2023-01-30T11:04:56.462Z,217.83
2023-01-30T11:08:02.281Z,240.38
2023-01-30T11:11:31.067Z,206.16
2023-01-30T11:14:59.525Z,201.72
2023-01-30T11:18:49.736Z,219.36
2023-01-30T11:21:44.511Z,211.81
2023-01-30T11:24:51.463Z,201.70
2023-01-30T11:28:08.053Z,211.97
2023-01-30T11:31:38.918Z,216.55
2023-01-30T11:34:47.643Z,224.16
2023-01-30T11:37:57.234Z,223.30
2023-01-30T11:41:23.792Z,223.93
2023-01-30T11:44:34.525Z,219.08
2023-01-30T11:47:43.233Z,207.64
2023-01-30T11:51:07.216Z,208.06
2023-01-30T11:54:29.765Z,199.86
2023-01-30T11:57:48.930Z,191.53
2023-01-30T12:00:55.036Z,171.58
2023-01-30T12:04:04.223Z,177.94
2023-01-30T12:07:22.595Z,173.55
2023-01-30T12:10:34.839Z,199.27
2023-01-30T12:13:46.735Z,194.02
2023-01-30T12:17:26.565Z,211.20
2023-01-30T12:20:59.061Z,209.02
2023-01-30T12:24:28.844Z,217.71
2023-01-30T12:28:07.606Z,213.43
2023-01-30T12:31:24.831Z,213.94
2023-01-30T12:34:30.691Z,203.07
2023-01-30T12:38:03.488Z,214.18
2023-01-30T12:41:33.366Z,204.53
2023-01-30T12:45:15.244Z,244.63
2023-01-30T12:49:10.218Z,238.94
2023-01-30T12:52:57.729Z,256.68
2023-01-30T12:56:42.094Z,313.79
2023-01-30T13:00:15.474Z,293.48
2023-01-30T13:03:38.946Z,290.77
2023-01-30T13:07:13.727Z,282.06
2023-01-30T13:10:33.777Z,310.76
2023-01-30T13:13:55.591Z,303.34
2023-01-30T13:17:27.853Z,273.31
2023-01-30T13:21:00.526Z,263.17
2023-01-30T13:24:27.543Z,232.02
2023-01-30T13:27:43.193Z,236.55
2023-01-30T13:30:55.339Z,236.77
2023-01-30T13:34:13.232Z,218.58
2023-01-30T13:37:21.377Z,229.69
2023-01-30T13:40:39.173Z,209.54
2023-01-30T13:43:54.945Z,206.54
2023-01-30T13:47:18.560Z,236.15
2023-01-30T13:51:02.133Z,240.34
2023-01-30T13:54:37.176Z,271.55
2023-01-30T13:58:00.516Z,264.79
2023-01-30T14:01:15.601Z,290.16
2023-01-30T14:04:51.301Z,295.94
2023-01-30T14:08:00.836Z,336.84
2023-01-30T14:11:07.160Z,360.35
2023-01-30T14:14:36.847Z,297.71
2023-01-30T14:17:59.425Z,290.68
2023-01-30T14:21:21.437Z,299.13
2023-01-30T14:24:31.890Z,341.67
2023-01-30T14:27:38.566Z,367.24
2023-01-30T14:30:52.667Z,363.56
2023-01-30T14:33:59.252Z,341.88
2023-01-30T14:37:05.284Z,316.83
2023-01-30T14:40:51.677Z,381.67
2023-01-30T14:43:57.691Z,376.46
2023-01-30T14:47:35.155Z,350.88
2023-01-30T14:50:31.021Z,281.07
2023-01-30T14:53:38.256Z,279.79
2023-01-30T14:56:56.772Z,274.01
2023-01-30T15:00:19.568Z,261.96
2023-01-30T15:03:25.557Z,290.07
2023-01-30T15:06:39.207Z,298.12
2023-01-30T15:09:56.551Z,315.94
2023-01-30T15:13:54.156Z,325.94
2023-01-30T15:17:33.140Z,318.45
2023-01-30T15:21:16.129Z,284.62
2023-01-30T15:25:10.945Z,293.21
2023-01-30T15:28:43.251Z,273.74
2023-01-30T15:31:58.121Z,269.01
2023-01-30T15:35:24.670Z,280.42
2023-01-30T15:38:34.023Z,306.72
2023-01-30T15:41:43.316Z,299.18
2023-01-30T15:45:09.889Z,290.33
2023-01-30T15:48:54.430Z,315.15
2023-01-30T15:52:07.199Z,296.64
2023-01-30T15:55:23.508Z,287.44
2023-01-30T15:58:30.891Z,280.39
2023-01-30T16:01:41.790Z,263.05
2023-01-30T16:04:47.854Z,287.75
2023-01-30T16:07:57.729Z,294.44
2023-01-30T16:11:04.094Z,307.87
2023-01-30T16:14:18.299Z,305.92
2023-01-30T16:17:29.155Z,298.57
2023-01-30T16:21:00.790Z,288.72
2023-01-30T16:24:16.487Z,282.71
2023-01-30T16:27:32.677Z,338.44
2023-01-30T16:30:49.190Z,361.90
2023-01-30T16:33:58.885Z,347.86
2023-01-30T16:37:10.594Z,384.49
2023-01-30T16:40:24.744Z,313.66
2023-01-30T16:43:35.076Z,269.80
2023-01-30T16:47:05.929Z,257.80
2023-01-30T16:50:24.296Z,271.35
2023-01-30T16:53:36.313Z,251.04
2023-01-30T16:56:50.931Z,265.30
2023-01-30T16:59:59.244Z,267.05
2023-01-30T17:03:11.244Z,263.69
2023-01-30T17:06:33.126Z,270.29
2023-01-30T17:09:48.756Z,273.45
2023-01-30T17:12:55.593Z,258.38
2023-01-30T17:16:35.876Z,250.67
2023-01-30T17:19:42.531Z,255.39
2023-01-30T17:22:57.900Z,261.59
2023-01-30T17:26:04.600Z,280.82
2023-01-30T17:29:23.094Z,257.00
2023-01-30T17:32:35.666Z,248.75
2023-01-30T17:35:41.644Z,261.40
2023-01-30T17:38:51.533Z,270.39
2023-01-30T17:41:57.303Z,327.22
2023-01-30T17:45:04.692Z,374.34
2023-01-30T17:48:10.918Z,322.15
2023-01-30T17:51:17.549Z,296.15
2023-01-30T17:54:26.507Z,274.53
2023-01-30T17:57:33.395Z,311.05
2023-01-30T18:00:39.134Z,306.32
2023-01-30T18:03:55.125Z,321.29
2023-01-30T18:07:07.196Z,315.91
2023-01-30T18:10:22.015Z,346.96
2023-01-30T18:13:28.117Z,303.72
2023-01-30T18:16:35.264Z,335.77
2023-01-30T18:19:41.737Z,355.36
2023-01-30T18:22:49.111Z,326.39
2023-01-30T18:25:57.509Z,376.22
2023-01-30T18:29:04.093Z,318.69
2023-01-30T18:32:10.120Z,365.96
2023-01-30T18:35:16.788Z,290.76
2023-01-30T18:38:22.607Z,301.49
2023-01-30T18:41:35.484Z,286.58
2023-01-30T18:44:41.549Z,282.85
2023-01-30T18:47:57.694Z,267.55
2023-01-30T18:51:12.087Z,256.70
2023-01-30T18:54:18.928Z,244.33
2023-01-30T18:57:27.438Z,268.67
2023-01-30T19:00:34.261Z,271.84
2023-01-30T19:03:40.826Z,266.93
2023-01-30T19:06:47.606Z,247.27
2023-01-30T19:09:56.626Z,268.24
2023-01-30T19:13:18.435Z,296.40
2023-01-30T19:16:29.315Z,303.05
2023-01-30T19:19:37.298Z,396.57
2023-01-30T19:22:43.267Z,287.89
2023-01-30T19:25:57.551Z,261.82
2023-01-30T19:29:06.681Z,303.55
2023-01-30T19:32:13.456Z,301.85
2023-01-30T19:35:19.919Z,321.63
2023-01-30T19:38:26.742Z,334.27
2023-01-30T19:41:36.293Z,356.30
2023-01-30T19:44:45.794Z,332.90
2023-01-30T19:47:51.773Z,303.96
2023-01-30T19:51:01.066Z,267.98
2023-01-30T19:54:10.675Z,245.80
2023-01-30T19:57:17.371Z,241.35
2023-01-30T20:00:26.536Z,232.71
2023-01-30T20:03:41.235Z,222.60
2023-01-30T20:06:49.807Z,211.86
2023-01-30T20:09:56.630Z,175.21
2023-01-30T20:13:02.504Z,157.15
2023-01-30T20:16:15.289Z,122.68
2023-01-30T20:19:21.134Z,103.53
2023-01-30T20:22:28.196Z,91.27
2023-01-30T20:25:34.183Z,95.68
2023-01-30T20:28:41.500Z,83.17
2023-01-30T20:31:49.915Z,64.25
2023-01-30T20:34:56.544Z,58.16
2023-01-30T20:38:02.503Z,57.43
2023-01-30T20:41:13.048Z,56.93
2023-01-30T20:44:18.924Z,47.26
2023-01-30T20:47:28.194Z,52.44
2023-01-30T20:50:33.950Z,49.05
2023-01-30T20:53:43.146Z,46.21
2023-01-30T20:56:52.048Z,40.66
2023-01-30T20:59:58.677Z,42.98
2023-01-30T21:03:07.169Z,42.97
2023-01-30T21:06:14.677Z,44.34
2023-01-30T21:09:40.636Z,55.50
2023-01-30T21:12:47.313Z,42.57
2023-01-30T21:16:04.927Z,44.31
2023-01-30T21:19:17.679Z,48.25
2023-01-30T21:22:23.470Z,52.48
2023-01-30T21:25:30.234Z,60.61
2023-01-30T21:28:38.456Z,54.57
2023-01-30T21:31:49.334Z,51.53
2023-01-30T21:34:58.178Z,65.13
2023-01-30T21:38:17.344Z,57.17
2023-01-30T21:41:39.016Z,50.24
2023-01-30T21:44:48.628Z,52.51
2023-01-30T21:47:55.565Z,54.20
2023-01-30T21:51:13.663Z,61.23
2023-01-30T21:54:21.318Z,59.49
2023-01-30T21:57:28.099Z,62.04
2023-01-30T22:00:33.838Z,61.39
2023-01-30T22:03:40.553Z,55.77
2023-01-30T22:06:49.048Z,51.94
2023-01-30T22:09:55.979Z,51.72
2023-01-30T22:13:01.742Z,54.71
2023-01-30T22:16:12.404Z,51.25
2023-01-30T22:19:18.164Z,50.62
2023-01-30T22:22:28.745Z,49.20
2023-01-30T22:25:34.491Z,47.15
2023-01-30T22:28:42.308Z,47.18
2023-01-30T22:31:54.006Z,51.26
2023-01-30T22:35:00.791Z,58.14
2023-01-30T22:38:09.160Z,85.62
2023-01-30T22:41:21.011Z,88.02
2023-01-30T22:44:26.785Z,83.79
2023-01-30T22:47:33.414Z,79.01
2023-01-30T22:50:39.185Z,78.81
2023-01-30T22:53:50.880Z,74.70
2023-01-30T22:56:56.919Z,74.36
2023-01-30T23:00:07.458Z,71.20
2023-01-30T23:03:18.932Z,67.50
2023-01-30T23:06:26.829Z,71.08
2023-01-30T23:09:35.640Z,65.64
2023-01-30T23:12:54.980Z,69.93
2023-01-30T23:16:03.757Z,71.48
2023-01-30T23:19:16.145Z,89.46
2023-01-30T23:22:22.110Z,83.67
2023-01-30T23:25:31.387Z,89.55
2023-01-30T23:28:42.074Z,93.78
2023-01-30T23:31:50.572Z,99.36
2023-01-30T23:35:10.162Z,109.81
2023-01-30T23:38:22.281Z,121.57
2023-01-30T23:41:36.637Z,129.95
2023-01-30T23:44:43.361Z,123.74
2023-01-30T23:47:49.124Z,120.95
2023-01-30T23:50:55.756Z,120.45
2023-01-30T23:54:02.405Z,120.55
2023-01-30T23:57:11.621Z,118.33
